createdAt,value
2022-09-28T00:01:29.111Z,23.50
2022-09-28T00:03:58.306Z,24.60
2022-09-28T00:06:28.548Z,25.98
2022-09-28T00:08:58.056Z,24.13
2022-09-28T00:11:29.718Z,24.05
2022-09-28T00:14:03.496Z,24.42
2022-09-28T00:16:34.145Z,23.52
2022-09-28T00:19:02.992Z,24.42
2022-09-28T00:21:33.169Z,22.27
2022-09-28T00:24:17.257Z,22.20
2022-09-28T00:26:56.122Z,22.00
2022-09-28T00:29:32.354Z,21.02
2022-09-28T00:32:05.054Z,21.55
2022-09-28T00:34:40.938Z,23.77
2022-09-28T00:37:10.154Z,22.20
2022-09-28T00:39:38.820Z,21.75
2022-09-28T00:42:18.663Z,22.38
2022-09-28T00:44:50.386Z,21.77
2022-09-28T00:47:24.607Z,22.30
2022-09-28T00:50:01.732Z,24.60
2022-09-28T00:52:38.835Z,22.48
2022-09-28T00:55:11.981Z,24.05
2022-09-28T00:57:44.304Z,22.70
2022-09-28T01:00:12.752Z,21.65
2022-09-28T01:02:40.737Z,23.00
2022-09-28T01:05:10.444Z,22.33
2022-09-28T01:07:39.134Z,22.73
2022-09-28T01:10:08.411Z,22.25
2022-09-28T01:12:36.583Z,22.50
2022-09-28T01:15:04.845Z,22.48
2022-09-28T01:17:57.519Z,23.45
2022-09-28T01:20:57.132Z,23.60
2022-09-28T01:24:12.167Z,24.63
2022-09-28T01:27:05.975Z,23.88
2022-09-28T01:30:05.975Z,24.85
2022-09-28T01:33:14.559Z,24.83
2022-09-28T01:35:50.747Z,23.70
2022-09-28T01:38:25.403Z,23.55
2022-09-28T01:40:55.245Z,24.08
2022-09-28T01:43:29.606Z,25.42
2022-09-28T01:46:17.198Z,24.75
2022-09-28T01:48:56.587Z,25.25
2022-09-28T01:51:32.379Z,25.30
2022-09-28T01:54:06.712Z,25.90
2022-09-28T01:56:40.701Z,24.25
2022-09-28T01:59:23.265Z,25.65
2022-09-28T02:01:59.733Z,25.25
2022-09-28T02:04:32.690Z,28.42
2022-09-28T02:07:14.248Z,26.08
2022-09-28T02:09:48.407Z,25.48
2022-09-28T02:12:23.216Z,24.27
2022-09-28T02:14:55.131Z,25.17
2022-09-28T02:17:22.941Z,24.70
2022-09-28T02:19:50.508Z,24.67
2022-09-28T02:22:32.430Z,22.88
2022-09-28T02:25:02.130Z,23.52
2022-09-28T02:27:42.855Z,23.13
2022-09-28T02:30:11.843Z,23.17
2022-09-28T02:32:44.318Z,23.07
2022-09-28T02:35:16.463Z,22.00
2022-09-28T02:37:46.446Z,23.40
2022-09-28T02:40:17.540Z,23.20
2022-09-28T02:42:49.450Z,22.60
2022-09-28T02:45:35.857Z,24.35
2022-09-28T02:48:09.391Z,22.67
2022-09-28T02:50:49.423Z,22.63
2022-09-28T02:53:16.840Z,22.10
2022-09-28T02:56:11.654Z,22.63
2022-09-28T02:58:57.675Z,22.92
2022-09-28T03:01:45.687Z,23.10
2022-09-28T03:04:32.609Z,22.60
2022-09-28T03:07:03.689Z,24.67
2022-09-28T03:09:40.290Z,23.35
2022-09-28T03:12:11.374Z,23.55
2022-09-28T03:14:39.031Z,23.20
2022-09-28T03:17:07.494Z,22.10
2022-09-28T03:19:36.891Z,22.70
2022-09-28T03:22:05.683Z,20.60
2022-09-28T03:24:33.284Z,21.33
2022-09-28T03:27:00.765Z,30.83
2022-09-28T03:29:31.443Z,22.55
2022-09-28T03:32:02.316Z,21.10
2022-09-28T03:34:30.134Z,21.90
2022-09-28T03:36:57.704Z,20.88
2022-09-28T03:39:25.759Z,20.80
2022-09-28T03:41:53.236Z,21.48
2022-09-28T03:44:21.951Z,20.55
2022-09-28T03:46:49.775Z,20.63
2022-09-28T03:49:17.476Z,23.08
2022-09-28T03:51:45.191Z,22.40
2022-09-28T03:54:13.142Z,20.92
2022-09-28T03:56:42.820Z,20.80
2022-09-28T03:59:10.597Z,20.45
2022-09-28T04:01:38.289Z,20.42
2022-09-28T04:04:05.869Z,19.85
2022-09-28T04:06:34.141Z,20.15
2022-09-28T04:09:01.737Z,20.88
2022-09-28T04:11:42.877Z,20.40
2022-09-28T04:14:17.995Z,21.88
2022-09-28T04:16:48.217Z,21.45
2022-09-28T04:19:16.779Z,21.67
2022-09-28T04:22:10.497Z,21.13
2022-09-28T04:24:39.218Z,22.08
2022-09-28T04:27:26.304Z,21.08
2022-09-28T04:29:54.239Z,20.67
2022-09-28T04:32:22.168Z,20.58
2022-09-28T04:37:19.535Z,21.30
2022-09-28T04:39:48.566Z,21.80
2022-09-28T04:42:19.353Z,22.55
2022-09-28T04:44:49.443Z,21.23
2022-09-28T04:47:17.980Z,20.95
2022-09-28T04:50:04.098Z,21.85
2022-09-28T04:52:36.835Z,20.25
2022-09-28T04:55:06.194Z,21.15
2022-09-28T04:57:35.520Z,19.63
2022-09-28T05:00:04.470Z,20.48
2022-09-28T05:02:35.098Z,21.20
2022-09-28T05:05:21.639Z,19.95
2022-09-28T05:08:23.952Z,19.63
2022-09-28T05:11:00.945Z,20.17
2022-09-28T05:13:29.158Z,20.15
2022-09-28T05:16:03.051Z,20.03
2022-09-28T05:18:36.167Z,20.42
2022-09-28T05:21:15.566Z,20.02
2022-09-28T05:23:48.235Z,19.30
2022-09-28T05:26:15.856Z,19.60
2022-09-28T05:28:44.766Z,19.95
2022-09-28T05:31:37.659Z,20.75
2022-09-28T05:34:16.318Z,20.38
2022-09-28T05:36:45.924Z,19.98
2022-09-28T05:39:13.860Z,21.20
2022-09-28T05:41:41.540Z,20.35
2022-09-28T05:44:09.069Z,22.13
2022-09-28T05:46:37.831Z,21.65
2022-09-28T05:49:05.889Z,21.58
2022-09-28T05:51:33.872Z,22.92
2022-09-28T05:54:05.676Z,21.98
2022-09-28T05:56:36.680Z,22.00
2022-09-28T06:01:34.440Z,21.70
2022-09-28T06:04:02.830Z,20.30
2022-09-28T06:06:30.374Z,21.67
2022-09-28T06:08:59.399Z,20.48
2022-09-28T06:11:46.026Z,19.48
2022-09-28T06:14:26.824Z,21.20
2022-09-28T06:16:54.437Z,20.23
2022-09-28T06:19:23.123Z,17.70
2022-09-28T06:22:09.115Z,17.35
2022-09-28T06:24:45.480Z,17.25
2022-09-28T06:27:13.014Z,16.65
2022-09-28T06:29:40.551Z,16.42
2022-09-28T06:32:08.005Z,16.55
2022-09-28T06:37:05.291Z,14.70
2022-09-28T06:39:33.848Z,16.00
2022-09-28T06:42:03.420Z,17.35
2022-09-28T06:44:51.076Z,16.17
2022-09-28T06:47:42.158Z,17.20
2022-09-28T06:50:27.821Z,16.98
2022-09-28T06:53:14.986Z,15.98
2022-09-28T06:55:58.030Z,14.93
2022-09-28T06:58:27.640Z,16.15
2022-09-28T07:00:59.487Z,15.60
2022-09-28T07:03:29.811Z,16.05
2022-09-28T07:06:20.694Z,15.73
2022-09-28T07:09:29.449Z,15.95
2022-09-28T07:12:13.233Z,16.25
2022-09-28T07:15:09.176Z,14.13
2022-09-28T07:17:49.224Z,16.13
2022-09-28T07:20:19.860Z,16.50
2022-09-28T07:22:58.328Z,16.23
2022-09-28T07:25:32.413Z,16.75
2022-09-28T07:28:09.669Z,15.60
2022-09-28T07:30:58.115Z,16.77
2022-09-28T07:33:51.258Z,17.80
2022-09-28T07:36:31.634Z,18.48
2022-09-28T07:38:59.243Z,17.50
2022-09-28T07:41:32.698Z,16.10
2022-09-28T07:44:06.288Z,15.82
2022-09-28T07:46:37.124Z,16.27
2022-09-28T07:49:19.405Z,16.05
2022-09-28T07:52:10.827Z,16.83
2022-09-28T07:54:52.271Z,15.95
2022-09-28T07:57:40.022Z,15.52
2022-09-28T08:00:34.315Z,14.20
2022-09-28T08:03:02.989Z,12.38
2022-09-28T08:05:36.008Z,11.95
2022-09-28T08:08:03.649Z,11.50
2022-09-28T08:10:31.604Z,12.07
2022-09-28T08:13:34.591Z,12.77
2022-09-28T08:16:34.731Z,13.18
2022-09-28T08:19:48.161Z,12.43
2022-09-28T08:22:17.807Z,13.38
2022-09-28T08:24:47.078Z,12.40
2022-09-28T08:27:16.744Z,13.65
2022-09-28T08:29:44.376Z,14.25
2022-09-28T08:32:31.239Z,13.60
2022-09-28T08:35:17.830Z,12.90
2022-09-28T08:37:58.589Z,12.82
2022-09-28T08:44:15.185Z,13.15
2022-09-28T08:47:39.673Z,13.15
2022-09-28T08:50:54.549Z,13.30
2022-09-28T08:53:53.846Z,12.68
2022-09-28T08:56:31.755Z,13.27
2022-09-28T08:59:04.308Z,13.40
2022-09-28T09:01:38.999Z,13.48
2022-09-28T09:04:10.197Z,13.45
2022-09-28T09:07:20.115Z,13.93
2022-09-28T09:12:40.151Z,14.32
2022-09-28T09:15:11.585Z,13.50
2022-09-28T09:17:58.197Z,15.02
2022-09-28T09:20:59.057Z,12.27
2022-09-28T09:23:39.316Z,13.82
2022-09-28T09:26:23.127Z,13.90
2022-09-28T09:29:12.304Z,13.63
2022-09-28T09:32:41.243Z,12.52
2022-09-28T09:35:44.198Z,13.18
2022-09-28T09:39:33.109Z,14.48
2022-09-28T09:42:44.659Z,13.03
2022-09-28T09:45:40.024Z,13.43
2022-09-28T09:48:43.339Z,13.75
2022-09-28T09:51:25.003Z,14.45
2022-09-28T09:54:00.266Z,15.77
2022-09-28T09:56:31.068Z,17.45
2022-09-28T09:59:22.940Z,14.23
2022-09-28T10:02:26.282Z,15.05
2022-09-28T10:05:15.257Z,13.10
2022-09-28T10:07:54.884Z,14.02
2022-09-28T10:10:26.872Z,13.75
2022-09-28T10:13:05.066Z,13.25
2022-09-28T10:15:35.414Z,13.98
2022-09-28T10:18:18.566Z,14.25
2022-09-28T10:23:58.303Z,14.93
2022-09-28T10:26:44.514Z,15.48
2022-09-28T10:29:25.496Z,15.82
2022-09-28T10:34:28.392Z,17.17
2022-09-28T10:37:02.518Z,15.88
2022-09-28T10:39:56.170Z,15.23
2022-09-28T10:42:33.353Z,15.98
2022-09-28T10:45:07.275Z,17.13
2022-09-28T10:47:37.051Z,16.33
2022-09-28T10:50:27.192Z,16.23
2022-09-28T10:53:19.661Z,15.10
2022-09-28T10:56:23.220Z,16.20
2022-09-28T10:59:43.082Z,15.73
2022-09-28T11:02:35.449Z,14.65
2022-09-28T11:05:21.563Z,16.15
2022-09-28T11:07:52.419Z,13.75
2022-09-28T11:10:27.915Z,14.60
2022-09-28T11:13:01.026Z,13.90
2022-09-28T11:15:32.679Z,15.93
2022-09-28T11:18:38.967Z,14.45
2022-09-28T11:21:17.264Z,15.35
2022-09-28T11:24:01.479Z,14.68
2022-09-28T11:26:53.007Z,14.50
2022-09-28T11:29:53.676Z,14.63
2022-09-28T11:32:23.920Z,13.73
2022-09-28T11:35:22.553Z,14.73
2022-09-28T11:37:57.547Z,15.23
2022-09-28T11:40:44.992Z,15.55
2022-09-28T11:43:16.781Z,14.52
2022-09-28T11:46:01.486Z,14.32
2022-09-28T11:48:40.987Z,15.82
2022-09-28T11:51:16.460Z,14.25
2022-09-28T11:54:03.475Z,14.40
2022-09-28T11:56:36.181Z,15.55
2022-09-28T11:59:20.491Z,15.15
2022-09-28T12:01:54.225Z,15.32
2022-09-28T12:05:38.884Z,15.73
2022-09-28T12:08:29.089Z,15.25
2022-09-28T12:11:02.646Z,14.77
2022-09-28T12:14:05.031Z,14.55
2022-09-28T12:17:08.114Z,14.85
2022-09-28T12:19:47.585Z,13.38
2022-09-28T12:22:39.551Z,14.40
2022-09-28T12:25:17.352Z,14.65
2022-09-28T12:27:51.515Z,16.40
2022-09-28T12:30:21.544Z,14.73
2022-09-28T12:33:18.070Z,14.85
2022-09-28T12:35:57.635Z,15.15
2022-09-28T12:38:42.766Z,15.27
2022-09-28T12:41:18.104Z,17.35
2022-09-28T12:44:07.783Z,16.17
2022-09-28T12:46:54.018Z,16.50
2022-09-28T12:52:29.971Z,15.65
2022-09-28T12:55:36.233Z,17.45
2022-09-28T12:58:26.588Z,15.85
2022-09-28T13:01:16.228Z,17.38
2022-09-28T13:06:47.291Z,17.35
2022-09-28T13:09:24.745Z,19.25
2022-09-28T13:11:55.563Z,18.05
2022-09-28T13:14:54.097Z,16.90
2022-09-28T13:17:48.953Z,17.58
2022-09-28T13:20:30.213Z,16.23
2022-09-28T13:23:22.524Z,17.10
2022-09-28T13:25:56.943Z,14.93
2022-09-28T13:28:27.579Z,16.00
2022-09-28T13:30:56.974Z,16.45
2022-09-28T13:33:39.544Z,14.68
2022-09-28T13:36:32.939Z,14.93
2022-09-28T13:39:01.220Z,15.75
2022-09-28T13:41:36.216Z,14.68
2022-09-28T13:44:13.947Z,14.90
2022-09-28T13:47:08.575Z,16.23
2022-09-28T13:49:39.381Z,16.88
2022-09-28T13:52:24.750Z,14.98
2022-09-28T13:55:01.516Z,15.55
2022-09-28T13:57:47.152Z,15.60
2022-09-28T14:00:29.577Z,15.30
2022-09-28T14:03:21.243Z,15.88
2022-09-28T14:06:04.408Z,16.48
2022-09-28T14:08:45.068Z,16.10
2022-09-28T14:11:24.763Z,16.77
2022-09-28T14:14:08.754Z,16.40
2022-09-28T14:16:37.019Z,17.65
2022-09-28T14:19:28.612Z,16.20
2022-09-28T14:22:01.971Z,18.00
2022-09-28T14:24:47.973Z,17.60
2022-09-28T14:27:33.756Z,17.33
2022-09-28T14:30:19.123Z,17.10
2022-09-28T14:32:57.886Z,17.92
2022-09-28T14:35:40.345Z,17.98
2022-09-28T14:38:37.342Z,17.02
2022-09-28T14:41:31.384Z,16.55
2022-09-28T14:44:02.768Z,17.23
2022-09-28T14:46:36.302Z,17.30
2022-09-28T14:49:23.318Z,16.90
2022-09-28T14:51:54.167Z,17.63
2022-09-28T14:54:24.409Z,16.50
2022-09-28T14:56:52.050Z,16.77
2022-09-28T14:59:24.899Z,18.30
2022-09-28T15:02:05.781Z,17.17
2022-09-28T15:04:36.818Z,16.50
2022-09-28T15:07:05.355Z,16.38
2022-09-28T15:09:36.258Z,16.42
2022-09-28T15:12:13.183Z,15.50
2022-09-28T15:14:53.182Z,16.10
2022-09-28T15:17:24.475Z,15.50
2022-09-28T15:20:03.064Z,16.10
2022-09-28T15:22:30.839Z,16.03
2022-09-28T15:25:02.753Z,16.42
2022-09-28T15:27:38.109Z,17.65
2022-09-28T15:30:36.730Z,16.25
2022-09-28T15:33:23.472Z,16.65
2022-09-28T15:36:05.385Z,16.15
2022-09-28T15:38:35.367Z,15.25
2022-09-28T15:41:05.515Z,16.23
2022-09-28T15:43:36.609Z,17.42
2022-09-28T15:46:18.498Z,19.02
2022-09-28T15:48:52.802Z,17.77
2022-09-28T15:51:22.153Z,17.25
2022-09-28T15:54:09.316Z,15.57
2022-09-28T15:56:59.809Z,15.77
2022-09-28T15:59:37.064Z,15.40
2022-09-28T16:02:25.336Z,16.00
2022-09-28T16:04:59.041Z,15.05
2022-09-28T16:07:32.282Z,14.30
2022-09-28T16:10:00.360Z,14.50
2022-09-28T16:12:42.134Z,14.60
2022-09-28T16:15:31.571Z,14.57
2022-09-28T16:18:23.497Z,14.02
2022-09-28T16:20:57.010Z,13.98
2022-09-28T16:23:31.242Z,13.90
2022-09-28T16:25:58.888Z,13.90
2022-09-28T16:28:34.657Z,14.18
2022-09-28T16:31:22.261Z,13.55
2022-09-28T16:33:54.328Z,12.30
2022-09-28T16:36:22.780Z,12.50
2022-09-28T16:38:50.356Z,12.18
2022-09-28T16:41:23.229Z,11.70
2022-09-28T16:44:02.269Z,11.55
2022-09-28T16:46:37.276Z,11.25
2022-09-28T16:49:06.969Z,10.35
2022-09-28T16:54:51.021Z,10.50
2022-09-28T16:57:18.519Z,10.38
2022-09-28T16:59:46.217Z,10.63
2022-09-28T17:02:42.201Z,11.55
2022-09-28T17:05:07.202Z,10.30
2022-09-28T17:07:35.329Z,10.38
2022-09-28T17:10:03.049Z,10.40
2022-09-28T17:12:32.906Z,11.02
2022-09-28T17:15:00.467Z,11.23
2022-09-28T17:17:30.007Z,10.80
2022-09-28T17:19:57.867Z,9.38
2022-09-28T17:22:25.352Z,8.88
2022-09-28T17:24:52.831Z,8.77
2022-09-28T17:27:21.680Z,8.40
2022-09-28T17:29:49.411Z,8.35
2022-09-28T17:32:19.089Z,9.95
2022-09-28T17:34:55.991Z,9.40
2022-09-28T17:37:36.252Z,9.88
2022-09-28T17:40:23.713Z,8.80
2022-09-28T17:42:53.911Z,9.50
2022-09-28T17:45:22.459Z,9.70
2022-09-28T17:47:50.141Z,8.30
2022-09-28T17:50:30.380Z,9.00
2022-09-28T17:53:00.035Z,8.18
2022-09-28T17:55:33.036Z,8.70
2022-09-28T17:58:02.387Z,7.90
2022-09-28T18:02:58.532Z,8.60
2022-09-28T18:05:29.185Z,8.32
2022-09-28T18:07:58.848Z,9.10
2022-09-28T18:10:27.586Z,8.60
2022-09-28T18:12:55.201Z,8.37
2022-09-28T18:15:23.433Z,9.45
2022-09-28T18:17:52.299Z,9.60
2022-09-28T18:20:19.987Z,8.65
2022-09-28T18:22:47.560Z,9.88
2022-09-28T18:25:15.224Z,9.05
2022-09-28T18:27:43.272Z,9.35
2022-09-28T18:30:11.205Z,8.50
2022-09-28T18:32:39.288Z,9.50
2022-09-28T18:35:08.919Z,10.45
2022-09-28T18:37:40.650Z,11.45
2022-09-28T18:40:10.732Z,9.75
2022-09-28T18:42:38.751Z,10.35
2022-09-28T18:45:08.486Z,9.48
2022-09-28T18:47:39.136Z,9.93
2022-09-28T18:50:07.362Z,9.40
2022-09-28T18:52:39.603Z,10.27
2022-09-28T18:55:07.993Z,9.13
2022-09-28T18:57:36.110Z,9.55
2022-09-28T19:00:09.616Z,8.77
2022-09-28T19:02:38.338Z,8.63
2022-09-28T19:05:06.688Z,8.68
2022-09-28T19:07:34.834Z,8.25
2022-09-28T19:10:02.615Z,9.10
2022-09-28T19:12:30.265Z,8.85
2022-09-28T19:14:59.696Z,8.65
2022-09-28T19:17:27.563Z,9.57
2022-09-28T19:19:55.097Z,9.88
2022-09-28T19:22:22.543Z,9.13
2022-09-28T19:24:49.998Z,9.30
2022-09-28T19:27:17.572Z,8.80
2022-09-28T19:29:45.226Z,8.82
2022-09-28T19:32:12.753Z,9.60
2022-09-28T19:34:40.204Z,10.15
2022-09-28T19:37:08.302Z,10.25
2022-09-28T19:39:36.829Z,9.15
2022-09-28T19:42:04.684Z,9.93
2022-09-28T19:44:33.615Z,9.55
2022-09-28T19:47:10.168Z,10.43
2022-09-28T19:49:40.091Z,10.98
2022-09-28T19:52:16.828Z,9.82
2022-09-28T19:54:52.198Z,9.82
2022-09-28T19:57:19.968Z,10.05
2022-09-28T19:59:52.028Z,9.38
2022-09-28T20:02:21.151Z,9.70
2022-09-28T20:04:49.047Z,10.82
2022-09-28T20:07:16.715Z,9.30
2022-09-28T20:09:44.271Z,9.77
2022-09-28T20:12:12.104Z,10.48
2022-09-28T20:14:40.531Z,10.02
2022-09-28T20:17:08.269Z,9.32
2022-09-28T20:19:37.116Z,9.57
2022-09-28T20:22:04.850Z,9.93
2022-09-28T20:24:32.710Z,9.50
2022-09-28T20:27:01.469Z,8.43
2022-09-28T20:29:31.728Z,9.45
2022-09-28T20:32:00.477Z,8.80
2022-09-28T20:34:28.041Z,9.23
2022-09-28T20:36:55.787Z,9.73
2022-09-28T20:39:23.322Z,8.43
2022-09-28T20:41:50.884Z,9.07
2022-09-28T20:44:18.562Z,8.95
2022-09-28T20:46:50.206Z,9.13
2022-09-28T20:49:19.307Z,9.57
2022-09-28T20:51:46.816Z,9.07
2022-09-28T20:54:14.274Z,9.93
2022-09-28T20:56:41.945Z,9.23
2022-09-28T20:59:12.293Z,12.23
2022-09-28T21:01:40.591Z,12.60
2022-09-28T21:04:09.564Z,9.82
2022-09-28T21:06:39.223Z,10.07
2022-09-28T21:09:10.334Z,9.30
2022-09-28T21:11:38.713Z,14.68
2022-09-28T21:14:09.691Z,11.02
2022-09-28T21:16:40.240Z,10.13
2022-09-28T21:19:08.006Z,9.18
2022-09-28T21:21:35.499Z,9.15
2022-09-28T21:24:03.861Z,10.07
2022-09-28T21:26:32.931Z,9.40
2022-09-28T21:29:11.146Z,9.70
2022-09-28T21:31:39.848Z,9.15
2022-09-28T21:34:13.386Z,9.43
2022-09-28T21:36:43.405Z,10.07
2022-09-28T21:39:11.417Z,9.15
2022-09-28T21:41:39.560Z,9.38
2022-09-28T21:44:08.696Z,10.57
2022-09-28T21:46:38.124Z,10.18
2022-09-28T21:49:07.979Z,10.27
2022-09-28T21:51:36.286Z,10.57
2022-09-28T21:54:04.086Z,10.77
2022-09-28T21:56:32.372Z,10.35
2022-09-28T21:59:01.392Z,9.88
2022-09-28T22:01:29.429Z,10.63
2022-09-28T22:03:57.811Z,11.45
2022-09-28T22:06:30.153Z,10.70
2022-09-28T22:08:59.807Z,11.15
2022-09-28T22:11:28.721Z,11.05
2022-09-28T22:16:30.677Z,10.88
2022-09-28T22:18:59.859Z,10.85
2022-09-28T22:21:32.827Z,11.00
2022-09-28T22:24:02.074Z,11.25
2022-09-28T22:26:49.374Z,11.52
2022-09-28T22:29:17.824Z,11.75
2022-09-28T22:31:45.383Z,12.13
2022-09-28T22:34:12.923Z,11.27
2022-09-28T22:36:40.398Z,11.00
2022-09-28T22:39:08.419Z,11.68
2022-09-28T22:41:35.893Z,11.13
2022-09-28T22:44:03.488Z,11.98
2022-09-28T22:46:32.607Z,11.75
2022-09-28T22:49:00.773Z,11.88
2022-09-28T22:51:30.002Z,13.48
2022-09-28T22:53:58.224Z,11.60
2022-09-28T22:56:25.935Z,18.60
2022-09-28T22:58:53.494Z,38.72
2022-09-28T23:01:26.884Z,49.78
2022-09-28T23:03:55.750Z,70.85
2022-09-28T23:06:26.135Z,68.72
2022-09-28T23:08:54.003Z,58.60
2022-09-28T23:11:23.035Z,54.85
2022-09-28T23:13:52.027Z,47.05
2022-09-28T23:18:49.354Z,31.80
2022-09-28T23:21:19.168Z,28.92
2022-09-28T23:23:52.249Z,26.23
2022-09-28T23:26:23.041Z,21.90
2022-09-28T23:28:51.311Z,19.65
2022-09-28T23:31:25.232Z,19.85
2022-09-28T23:33:57.531Z,18.77
2022-09-28T23:36:25.622Z,20.23
2022-09-28T23:38:53.551Z,19.98
2022-09-28T23:41:21.196Z,20.60
2022-09-28T23:43:48.682Z,21.85
2022-09-28T23:46:20.510Z,21.60
2022-09-28T23:48:50.051Z,20.30
2022-09-28T23:51:17.839Z,22.52
2022-09-28T23:53:46.303Z,20.65
2022-09-28T23:56:14.717Z,20.23
2022-09-28T23:58:42.838Z,18.42
